Time;durP1;ratioP1;P1;durP2;ratioP2;P2;SDS_P1;SDS_P2;PMS_P1;PMS_P2;Temp;Humidity;BMP_temperature;BMP_pressure;BME280_temperature;BME280_humidity;BME280_pressure;Samples;Min_cycle;Max_cycle;Signal;HPM_P1;HPM_P2
2023/01/19 00:00:09;;;;;;;;;;;0.70;99.90;1.40;98757.00;;;;340560;28;82579;-85
2023/01/19 00:00:21;;;;;;;;;;;0.70;99.90;1.50;98755.00;;;;338457;28;90697;-85
2023/01/19 00:00:33;;;;;;;;;;;0.70;99.90;1.40;98756.00;;;;339045;28;83482;-85
2023/01/19 00:00:45;;;;;;;;;;;0.70;99.90;1.30;98748.00;;;;338880;28;91163;-85
2023/01/19 00:00:56;;;;;;;;;;;0.70;99.90;1.20;98752.00;;;;337962;28;83263;-85
2023/01/19 00:01:08;;;;;;;;;;;0.70;99.90;1.40;98743.00;;;;340162;28;88903;-85
2023/01/19 00:01:20;;;;;;;;;;;0.70;99.90;1.40;98754.00;;;;339385;28;83391;-85
2023/01/19 00:01:32;;;;;;;;;;;0.70;99.90;1.30;98749.00;;;;340232;28;87644;-85
2023/01/19 00:01:43;;;;;;;;;;;0.70;99.90;1.40;98757.00;;;;343347;28;82397;-85
2023/01/19 00:01:55;;;;;;;;;;;0.70;99.90;1.50;98749.00;;;;341318;28;90721;-86
2023/01/19 00:02:07;;;;;;;;;;;0.70;99.90;1.50;98744.00;;;;336648;28;83463;-85
2023/01/19 00:02:19;;;;;;;;;;;0.70;99.90;1.60;98750.00;;;;338835;28;90407;-85
2023/01/19 00:02:31;;;;;;;;;;;0.80;99.90;1.40;98745.00;;;;344456;28;82587;-85
2023/01/19 00:02:46;;;;;;;;;;;0.80;99.90;1.30;98753.00;;;;339936;28;91329;-84
2023/01/19 00:02:57;;;;;;;;;;;0.80;99.90;1.20;98738.00;;;;341780;28;83496;-86
2023/01/19 00:03:14;;;;;;;;;;;0.70;99.90;1.30;98753.00;;;;340154;28;87481;-85
2023/01/19 00:03:26;;;;;;;;;;;0.70;99.90;1.40;98757.00;;;;339127;28;83560;-85
2023/01/19 00:03:38;;;;;;;;;;;0.70;99.90;1.50;98746.00;;;;338957;28;87974;-85
2023/01/19 00:03:50;;;;;;;;;;;0.70;99.90;1.50;98743.00;;;;342083;28;82429;-85
2023/01/19 00:04:01;;;;;;;;;;;0.70;99.90;1.40;98749.00;;;;340114;28;92032;-85
2023/01/19 00:04:13;;;;;;;;;;;0.70;99.90;1.30;98756.00;;;;339327;28;83442;-85
2023/01/19 00:04:25;;;;;;;;;;;0.70;99.90;1.30;98745.00;;;;338751;28;92160;-86
2023/01/19 00:04:37;;;;;;;;;;;0.70;99.90;1.40;98742.00;;;;341970;28;83274;-85
2023/01/19 00:04:49;;;;;;;;;;;0.70;99.90;1.40;98755.00;;;;341436;28;90003;-86
2023/01/19 00:05:02;;;;;;;;;;;0.70;99.90;1.40;98755.00;;;;340696;28;82392;-85
2023/01/19 00:05:14;;;;;;;;;;;0.70;99.90;1.40;98754.00;;;;338825;28;92023;-85
2023/01/19 00:05:26;;;;;;;;;;;0.70;99.90;1.40;98746.00;;;;339270;28;83300;-85
2023/01/19 00:05:38;;;;;;;;;;;0.70;99.90;1.40;98754.00;;;;338734;28;93222;-85
2023/01/19 00:05:50;;;;;;;;;;;0.80;99.90;1.50;98751.00;;;;339076;28;83386;-85
2023/01/19 00:06:05;;;;;;;;;;;0.70;99.90;1.50;98754.00;;;;338622;28;90570;-85
2023/01/19 00:06:18;;;;;;;;;;;0.70;99.90;1.40;98755.00;;;;339377;28;82356;-86
2023/01/19 00:06:31;;;;;;;;;;;0.80;99.90;1.40;98748.00;;;;342741;28;89511;-85
2023/01/19 00:06:43;;;;;;;;;;;0.70;99.90;1.40;98754.00;;;;340591;28;82586;-85
2023/01/19 00:06:54;;;;;;;;;;;0.70;99.90;1.40;98753.00;;;;341381;28;90768;-86
2023/01/19 00:07:06;;;;;;;;;;;0.80;99.90;1.40;98755.00;;;;342033;28;83111;-86
2023/01/19 00:07:18;;;;;;;;;;;0.80;99.90;1.40;98757.00;;;;341408;28;92359;-85
2023/01/19 00:07:30;;;;;;;;;;;0.70;99.90;1.40;98757.00;;;;341958;28;83505;-86
2023/01/19 00:07:42;;;;;;;;;;;0.80;99.90;1.40;98755.00;;;;342919;28;88340;-85
2023/01/19 00:07:54;;;;;;;;;;;0.80;99.90;1.40;98748.00;;;;339235;28;83384;-85
2023/01/19 00:08:13;;;;;;;;;;;0.70;99.90;1.50;98753.00;;;;340253;28;89236;-85
2023/01/19 00:08:25;;;;;;;;;;;0.70;99.90;1.40;98757.00;;;;340411;28;83561;-86
2023/01/19 00:08:37;;;;;;;;;;;0.80;99.90;1.40;98757.00;;;;338922;28;88982;-85
2023/01/19 00:08:49;;;;;;;;;;;0.80;99.90;1.40;98758.00;;;;337966;28;83617;-86
2023/01/19 00:09:01;;;;;;;;;;;0.80;99.90;1.30;98762.00;;;;338874;28;90350;-85
2023/01/19 00:09:13;;;;;;;;;;;0.70;99.90;1.30;98756.00;;;;340459;28;82343;-85
2023/01/19 00:09:25;;;;;;;;;;;0.70;99.90;1.30;98755.00;;;;338852;28;89100;-85
2023/01/19 00:09:37;;;;;;;;;;;0.70;99.90;1.30;98761.00;;;;339137;28;82673;-86
2023/01/19 00:09:49;;;;;;;;;;;0.70;99.90;1.30;98764.00;;;;338934;28;89222;-86
2023/01/19 00:10:00;;;;;;;;;;;0.70;99.90;1.30;98764.00;;;;341992;28;83196;-85
2023/01/19 00:10:12;;;;;;;;;;;0.70;99.90;1.30;98752.00;;;;340107;28;89773;-86
2023/01/19 00:10:24;;;;;;;;;;;0.70;99.90;1.30;98755.00;;;;339054;28;83532;-85
2023/01/19 00:10:35;;;;;;;;;;;0.70;99.90;1.40;98764.00;;;;342909;28;87625;-85
2023/01/19 00:10:49;;;;;;;;;;;0.70;99.90;1.40;98757.00;;;;341987;28;82561;-85
2023/01/19 00:11:01;;;;;;;;;;;0.70;99.90;1.40;98758.00;;;;340221;28;88745;-86
2023/01/19 00:11:13;;;;;;;;;;;0.70;99.90;1.30;98746.00;;;;340656;28;83386;-85
2023/01/19 00:11:25;;;;;;;;;;;0.70;99.90;1.30;98751.00;;;;340118;28;91757;-85
2023/01/19 00:11:37;;;;;;;;;;;0.70;99.90;1.40;98754.00;;;;340641;28;83384;-85
2023/01/19 00:11:49;;;;;;;;;;;0.70;99.90;1.40;98760.00;;;;337640;28;88004;-86
2023/01/19 00:12:01;;;;;;;;;;;0.70;99.90;1.40;98757.00;;;;340545;28;83387;-86
2023/01/19 00:12:12;;;;;;;;;;;0.70;99.90;1.40;98757.00;;;;338822;28;91405;-85
2023/01/19 00:12:25;;;;;;;;;;;0.70;99.90;1.30;98756.00;;;;339335;28;83468;-85
2023/01/19 00:12:36;;;;;;;;;;;0.70;99.90;1.30;98752.00;;;;337481;28;88112;-85
2023/01/19 00:12:48;;;;;;;;;;;0.70;99.90;1.20;98758.00;;;;339071;28;82455;-85
2023/01/19 00:13:00;;;;;;;;;;;0.70;99.90;1.40;98770.00;;;;340200;28;89809;-85
2023/01/19 00:13:13;;;;;;;;;;;0.70;99.90;1.30;98763.00;;;;339278;28;83455;-85
2023/01/19 00:13:25;;;;;;;;;;;0.70;99.90;1.40;98757.00;;;;340115;28;91350;-85
2023/01/19 00:13:36;;;;;;;;;;;0.70;99.90;1.50;98751.00;;;;340624;28;84120;-86
2023/01/19 00:13:49;;;;;;;;;;;0.70;99.90;1.30;98757.00;;;;340173;28;92746;-86
2023/01/19 00:14:01;;;;;;;;;;;0.70;99.90;1.30;98756.00;;;;340296;28;83834;-86
2023/01/19 00:14:13;;;;;;;;;;;0.70;99.90;1.40;98757.00;;;;338873;28;90613;-85
2023/01/19 00:14:25;;;;;;;;;;;0.70;99.90;1.40;98762.00;;;;337976;28;83423;-85
2023/01/19 00:14:36;;;;;;;;;;;0.80;99.90;1.40;98757.00;;;;336089;28;91459;-85
2023/01/19 00:14:48;;;;;;;;;;;0.70;99.90;1.50;98761.00;;;;337944;28;83369;-85
2023/01/19 00:15:00;;;;;;;;;;;0.70;99.90;1.50;98755.00;;;;338720;28;92049;-85
2023/01/19 00:15:12;;;;;;;;;;;0.70;99.90;1.50;98760.00;;;;337559;28;82505;-85
2023/01/19 00:15:23;;;;;;;;;;;0.70;99.90;1.60;98746.00;;;;337587;28;90421;-85
2023/01/19 00:15:35;;;;;;;;;;;0.70;99.90;1.60;98751.00;;;;337935;28;83179;-85
2023/01/19 00:15:47;;;;;;;;;;;0.80;99.90;1.60;98756.00;;;;340082;28;90286;-85
2023/01/19 00:15:59;;;;;;;;;;;0.80;99.90;1.50;98758.00;;;;337857;28;83633;-86
2023/01/19 00:16:10;;;;;;;;;;;0.80;99.90;1.50;98753.00;;;;338856;28;88965;-85
2023/01/19 00:16:22;;;;;;;;;;;0.80;99.90;1.50;98754.00;;;;343296;28;83286;-84
2023/01/19 00:16:34;;;;;;;;;;;0.80;99.90;1.50;98755.00;;;;341420;28;89085;-85
2023/01/19 00:16:46;;;;;;;;;;;0.80;99.90;1.60;98748.00;;;;339333;28;83869;-85
2023/01/19 00:16:58;;;;;;;;;;;0.80;99.90;1.60;98752.00;;;;338894;28;89539;-85
2023/01/19 00:17:10;;;;;;;;;;;0.80;99.90;1.60;98753.00;;;;343344;28;83388;-85
2023/01/19 00:17:22;;;;;;;;;;;0.80;99.90;1.50;98753.00;;;;339734;28;92516;-85
2023/01/19 00:17:34;;;;;;;;;;;0.80;99.90;1.40;98755.00;;;;340546;28;83347;-85
2023/01/19 00:17:45;;;;;;;;;;;0.80;99.90;1.40;98754.00;;;;338926;28;88780;-85
2023/01/19 00:17:57;;;;;;;;;;;0.80;99.90;1.40;98756.00;;;;339226;28;83478;-85
2023/01/19 00:18:09;;;;;;;;;;;0.80;99.90;1.40;98762.00;;;;338868;28;88112;-85
2023/01/19 00:18:21;;;;;;;;;;;0.80;99.90;1.40;98754.00;;;;340570;28;83451;-85
2023/01/19 00:18:33;;;;;;;;;;;0.80;99.90;1.40;98749.00;;;;341540;28;88954;-85
2023/01/19 00:18:45;;;;;;;;;;;0.80;99.90;1.40;98750.00;;;;341996;28;82541;-85
2023/01/19 00:18:57;;;;;;;;;;;0.70;99.90;1.40;98747.00;;;;340057;28;92886;-85
2023/01/19 00:19:09;;;;;;;;;;;0.70;99.90;1.40;98738.00;;;;342014;28;82446;-85
2023/01/19 00:19:21;;;;;;;;;;;0.80;99.90;1.30;98751.00;;;;339833;28;90558;-85
2023/01/19 00:19:33;;;;;;;;;;;0.70;99.90;1.20;98739.00;;;;341858;28;83451;-85
2023/01/19 00:19:44;;;;;;;;;;;0.70;99.90;1.30;98749.00;;;;340003;28;91661;-85
2023/01/19 00:19:56;;;;;;;;;;;0.70;99.90;1.40;98749.00;;;;344618;28;83350;-85
2023/01/19 00:20:08;;;;;;;;;;;0.70;99.90;1.50;98752.00;;;;341559;28;89555;-85
2023/01/19 00:20:20;;;;;;;;;;;0.70;99.90;1.60;98749.00;;;;342054;28;83293;-85
2023/01/19 00:20:34;;;;;;;;;;;0.70;99.90;1.60;98752.00;;;;338705;28;90732;-85
2023/01/19 00:20:46;;;;;;;;;;;0.70;99.90;1.40;98747.00;;;;339214;28;83432;-85
2023/01/19 00:20:58;;;;;;;;;;;0.80;99.90;1.40;98744.00;;;;340218;28;89101;-85
2023/01/19 00:21:10;;;;;;;;;;;0.70;99.90;1.50;98758.00;;;;339331;28;83325;-85
2023/01/19 00:21:21;;;;;;;;;;;0.70;99.90;1.40;98749.00;;;;338798;28;88430;-85
2023/01/19 00:21:33;;;;;;;;;;;0.80;99.90;1.30;98749.00;;;;339031;28;82550;-85
2023/01/19 00:21:45;;;;;;;;;;;0.70;99.90;1.30;98753.00;;;;338829;28;92424;-85
2023/01/19 00:21:56;;;;;;;;;;;0.70;99.90;1.30;98748.00;;;;337947;28;83420;-85
2023/01/19 00:22:08;;;;;;;;;;;0.70;99.90;1.30;98756.00;;;;340194;28;87759;-85
2023/01/19 00:22:20;;;;;;;;;;;0.70;99.90;1.40;98749.00;;;;341935;28;83364;-85
2023/01/19 00:22:32;;;;;;;;;;;0.80;99.90;1.30;98752.00;;;;340198;28;90649;-85
2023/01/19 00:22:44;;;;;;;;;;;0.70;99.90;1.30;98751.00;;;;339195;28;83448;-85
2023/01/19 00:22:55;;;;;;;;;;;0.70;99.90;1.30;98751.00;;;;340138;28;89818;-85
2023/01/19 00:23:08;;;;;;;;;;;0.70;99.90;1.30;98755.00;;;;340691;28;82502;-85
2023/01/19 00:23:20;;;;;;;;;;;0.70;99.90;1.20;98753.00;;;;342965;28;88145;-86
2023/01/19 00:23:32;;;;;;;;;;;0.70;99.90;1.20;98750.00;;;;336608;28;83283;-85
2023/01/19 00:23:46;;;;;;;;;;;0.70;99.90;1.20;98759.00;;;;340158;28;90464;-85
2023/01/19 00:23:58;;;;;;;;;;;0.70;99.90;1.20;98753.00;;;;341963;28;82351;-85
2023/01/19 00:24:10;;;;;;;;;;;0.70;99.90;1.20;98756.00;;;;340185;28;89172;-85
2023/01/19 00:24:22;;;;;;;;;;;0.70;99.90;1.30;98749.00;;;;342025;28;83320;-85
2023/01/19 00:24:33;;;;;;;;;;;0.70;99.90;1.20;98750.00;;;;340180;28;89527;-84
2023/01/19 00:24:45;;;;;;;;;;;0.70;99.90;1.20;98751.00;;;;339256;28;84176;-85
2023/01/19 00:24:57;;;;;;;;;;;0.70;99.90;1.20;98752.00;;;;337428;28;90570;-85
2023/01/19 00:25:09;;;;;;;;;;;0.70;99.90;1.30;98749.00;;;;340639;28;82431;-85
2023/01/19 00:25:21;;;;;;;;;;;0.70;99.90;1.30;98763.00;;;;340176;28;88715;-85
2023/01/19 00:25:32;;;;;;;;;;;0.70;99.90;1.30;98757.00;;;;339051;28;82538;-85
2023/01/19 00:25:46;;;;;;;;;;;0.70;99.90;1.30;98742.00;;;;340146;28;89436;-85
2023/01/19 00:25:58;;;;;;;;;;;0.70;99.90;1.20;98737.00;;;;339317;28;83341;-85
2023/01/19 00:26:10;;;;;;;;;;;0.70;99.90;1.20;98750.00;;;;336178;28;91345;-85
2023/01/19 00:26:22;;;;;;;;;;;0.60;99.90;1.30;98743.00;;;;340724;28;82393;-85
2023/01/19 00:26:33;;;;;;;;;;;0.70;99.90;1.30;98753.00;;;;340006;28;91275;-85
2023/01/19 00:26:45;;;;;;;;;;;0.60;99.90;1.30;98742.00;;;;340220;28;83600;-86
2023/01/19 00:26:57;;;;;;;;;;;0.60;99.90;1.30;98757.00;;;;341494;28;89799;-84
2023/01/19 00:27:09;;;;;;;;;;;0.60;99.90;1.20;98742.00;;;;340592;28;83449;-86
2023/01/19 00:27:21;;;;;;;;;;;0.70;99.90;1.20;98745.00;;;;340227;28;89407;-85
2023/01/19 00:27:33;;;;;;;;;;;0.60;99.90;1.20;98745.00;;;;339206;28;83508;-84
2023/01/19 00:27:48;;;;;;;;;;;0.60;99.90;1.30;98741.00;;;;340128;28;89531;-85
2023/01/19 00:28:00;;;;;;;;;;;0.60;99.90;1.30;98749.00;;;;341416;28;83500;-85
2023/01/19 00:28:14;;;;;;;;;;;0.60;99.90;1.20;98746.00;;;;340175;28;89285;-85
2023/01/19 00:28:26;;;;;;;;;;;0.60;99.90;1.20;98748.00;;;;340715;28;83239;-85
2023/01/19 00:28:37;;;;;;;;;;;0.60;99.90;1.20;98750.00;;;;339825;28;90702;-85
2023/01/19 00:28:49;;;;;;;;;;;0.60;99.90;1.30;98745.00;;;;339300;28;83456;-86
2023/01/19 00:29:03;;;;;;;;;;;0.60;99.90;1.20;98739.00;;;;338839;28;89406;-85
2023/01/19 00:29:15;;;;;;;;;;;0.60;99.90;1.30;98745.00;;;;339014;28;83460;-85
2023/01/19 00:29:29;;;;;;;;;;;0.60;99.90;1.40;98746.00;;;;339995;28;90944;-85
2023/01/19 00:29:41;;;;;;;;;;;0.60;99.90;1.40;98752.00;;;;340584;28;83364;-85
2023/01/19 00:29:53;;;;;;;;;;;0.60;99.90;1.50;98747.00;;;;338635;28;91605;-85
2023/01/19 00:30:06;;;;;;;;;;;0.60;99.90;1.50;98744.00;;;;336418;28;83494;-85
2023/01/19 00:30:18;;;;;;;;;;;0.70;99.90;1.50;98746.00;;;;337333;28;91718;-86
2023/01/19 00:30:29;;;;;;;;;;;0.70;99.90;1.40;98740.00;;;;338014;28;83219;-85
2023/01/19 00:30:41;;;;;;;;;;;0.60;99.90;1.20;98749.00;;;;341135;28;90549;-85
2023/01/19 00:30:53;;;;;;;;;;;0.70;99.90;1.20;98752.00;;;;339324;28;82562;-85
2023/01/19 00:31:05;;;;;;;;;;;0.60;99.90;1.20;98742.00;;;;337272;28;91233;-85
2023/01/19 00:31:19;;;;;;;;;;;0.60;99.90;1.10;98735.00;;;;337908;28;83158;-85
2023/01/19 00:31:32;;;;;;;;;;;0.60;99.90;1.10;98741.00;;;;337404;28;91793;-85
2023/01/19 00:31:44;;;;;;;;;;;0.60;99.90;1.10;98746.00;;;;337960;28;82582;-85
2023/01/19 00:31:56;;;;;;;;;;;0.60;99.90;1.10;98745.00;;;;338797;28;89142;-85
2023/01/19 00:32:08;;;;;;;;;;;0.60;99.90;1.20;98746.00;;;;340687;28;82366;-85
2023/01/19 00:32:20;;;;;;;;;;;0.60;99.90;1.30;98748.00;;;;341286;28;90349;-85
2023/01/19 00:32:31;;;;;;;;;;;0.60;99.90;1.40;98744.00;;;;340639;28;82317;-85
2023/01/19 00:32:43;;;;;;;;;;;0.60;99.90;1.40;98749.00;;;;341171;28;91358;-85
2023/01/19 00:32:55;;;;;;;;;;;0.60;99.90;1.50;98753.00;;;;341938;28;83423;-85
2023/01/19 00:33:08;;;;;;;;;;;0.60;99.90;1.40;98748.00;;;;340129;28;93236;-85
2023/01/19 00:33:19;;;;;;;;;;;0.60;99.90;1.30;98749.00;;;;341940;28;83386;-85
2023/01/19 00:33:31;;;;;;;;;;;0.60;99.90;1.40;98741.00;;;;340177;28;91586;-85
2023/01/19 00:33:47;;;;;;;;;;;0.60;99.90;1.20;98736.00;;;;340677;28;82433;-85
2023/01/19 00:33:59;;;;;;;;;;;0.60;99.90;1.30;98735.00;;;;341229;28;89758;-85
2023/01/19 00:34:11;;;;;;;;;;;0.60;99.90;1.40;98738.00;;;;343166;28;83472;-85
2023/01/19 00:34:23;;;;;;;;;;;0.60;99.90;1.30;98742.00;;;;341590;28;89093;-85
2023/01/19 00:34:41;;;;;;;;;;;0.60;99.90;1.40;98741.00;;;;339221;28;83221;-85
2023/01/19 00:34:53;;;;;;;;;;;0.60;99.90;1.40;98749.00;;;;338678;28;92308;-85
2023/01/19 00:35:05;;;;;;;;;;;0.60;99.90;1.50;98738.00;;;;339326;28;83413;-86
2023/01/19 00:35:17;;;;;;;;;;;0.60;99.90;1.50;98740.00;;;;338461;28;93019;-85
2023/01/19 00:35:29;;;;;;;;;;;0.60;99.90;1.50;98742.00;;;;339283;28;83467;-85
2023/01/19 00:35:43;;;;;;;;;;;0.70;99.90;1.50;98740.00;;;;338617;28;90960;-85
2023/01/19 00:35:55;;;;;;;;;;;0.70;99.90;1.40;98738.00;;;;339031;28;82679;-85
2023/01/19 00:36:07;;;;;;;;;;;0.70;99.90;1.40;98741.00;;;;338791;28;90275;-85
2023/01/19 00:36:19;;;;;;;;;;;0.70;99.90;1.40;98747.00;;;;340574;28;83076;-85
2023/01/19 00:36:31;;;;;;;;;;;0.70;99.90;1.30;98742.00;;;;341555;28;89093;-85
2023/01/19 00:36:43;;;;;;;;;;;0.70;99.90;1.30;98740.00;;;;341633;28;83458;-85
2023/01/19 00:36:55;;;;;;;;;;;0.70;99.90;1.30;98742.00;;;;340190;28;89723;-85
2023/01/19 00:37:08;;;;;;;;;;;0.70;99.90;1.40;98740.00;;;;336707;28;82231;-85
2023/01/19 00:37:19;;;;;;;;;;;0.70;99.90;1.40;98736.00;;;;338747;28;88948;-85
2023/01/19 00:37:31;;;;;;;;;;;0.70;99.90;1.40;98745.00;;;;339344;28;83423;-85
2023/01/19 00:37:46;;;;;;;;;;;0.70;99.90;1.50;98733.00;;;;340074;28;91463;-85
2023/01/19 00:37:57;;;;;;;;;;;0.60;99.90;1.60;98740.00;;;;341703;28;82655;-85
2023/01/19 00:38:10;;;;;;;;;;;0.70;99.90;1.50;98743.00;;;;340176;28;89349;-85
2023/01/19 00:38:22;;;;;;;;;;;0.70;99.90;1.40;98750.00;;;;339312;28;83456;-85
2023/01/19 00:38:34;;;;;;;;;;;0.70;99.90;1.30;98743.00;;;;338827;28;89071;-85
2023/01/19 00:38:45;;;;;;;;;;;0.70;99.90;1.40;98740.00;;;;340561;28;83571;-85
2023/01/19 00:38:57;;;;;;;;;;;0.70;99.90;1.50;98746.00;;;;338786;28;88594;-85
2023/01/19 00:39:09;;;;;;;;;;;0.70;99.90;1.40;98737.00;;;;339343;28;83338;-85
2023/01/19 00:39:21;;;;;;;;;;;0.70;99.90;1.40;98746.00;;;;338848;28;88800;-85
2023/01/19 00:39:33;;;;;;;;;;;0.70;99.90;1.40;98738.00;;;;339258;28;82560;-85
2023/01/19 00:39:44;;;;;;;;;;;0.70;99.90;1.40;98738.00;;;;338627;28;90766;-85
2023/01/19 00:39:56;;;;;;;;;;;0.70;99.90;1.30;98740.00;;;;338903;28;83297;-85
2023/01/19 00:40:08;;;;;;;;;;;0.70;99.90;1.20;98739.00;;;;340183;28;88795;-85
2023/01/19 00:40:21;;;;;;;;;;;0.70;99.90;1.20;98742.00;;;;339033;28;83801;-85
2023/01/19 00:40:33;;;;;;;;;;;0.70;99.90;1.30;98739.00;;;;337550;28;89109;-85
2023/01/19 00:40:44;;;;;;;;;;;0.70;99.90;1.30;98741.00;;;;340549;28;83522;-85
2023/01/19 00:40:56;;;;;;;;;;;0.70;99.90;1.30;98739.00;;;;340114;28;90516;-85
2023/01/19 00:41:08;;;;;;;;;;;0.70;99.90;1.40;98743.00;;;;340660;28;83756;-85
2023/01/19 00:42:38;;;;;;;;;;;0.70;99.90;1.50;98744.00;;;;341479;28;90461;-85
2023/01/19 00:42:39;;;;;;;;;;;0.70;99.90;1.40;98744.00;;;;340139;28;89839;-85
2023/01/19 00:42:51;;;;;;;;;;;0.70;99.90;1.20;98739.00;;;;341886;28;83411;-85
2023/01/19 00:43:03;;;;;;;;;;;0.70;99.90;1.10;98742.00;;;;338612;28;91029;-84
2023/01/19 00:43:15;;;;;;;;;;;0.70;99.90;1.10;98741.00;;;;340578;28;83438;-85
2023/01/19 00:43:27;;;;;;;;;;;0.60;99.90;1.00;98744.00;;;;338928;28;88016;-85
2023/01/19 00:43:39;;;;;;;;;;;0.60;99.90;1.00;98746.00;;;;339231;28;83433;-85
2023/01/19 00:43:50;;;;;;;;;;;0.60;99.90;1.20;98744.00;;;;336145;28;89309;-85
2023/01/19 00:44:02;;;;;;;;;;;0.60;99.90;1.30;98731.00;;;;337904;28;82504;-85
2023/01/19 00:44:14;;;;;;;;;;;0.60;99.90;1.30;98738.00;;;;340017;28;90381;-85
2023/01/19 00:44:26;;;;;;;;;;;0.60;99.90;1.30;98739.00;;;;341974;28;83332;-85
2023/01/19 00:44:38;;;;;;;;;;;0.60;99.90;1.30;98745.00;;;;340157;28;89503;-85
2023/01/19 00:44:50;;;;;;;;;;;0.60;99.90;1.20;98740.00;;;;337967;28;83323;-85
2023/01/19 00:45:02;;;;;;;;;;;0.60;99.90;1.20;98742.00;;;;337509;28;89620;-85
2023/01/19 00:45:17;;;;;;;;;;;0.60;99.90;1.20;98736.00;;;;340591;28;83147;-85
2023/01/19 00:45:29;;;;;;;;;;;0.60;99.90;1.10;98739.00;;;;341323;28;89786;-85
2023/01/19 00:45:41;;;;;;;;;;;0.60;99.90;1.10;98737.00;;;;338929;28;83202;-85
2023/01/19 00:45:53;;;;;;;;;;;0.60;99.90;1.10;98736.00;;;;340168;28;89092;-85
2023/01/19 00:46:05;;;;;;;;;;;0.60;99.90;1.10;98736.00;;;;340439;28;83509;-85
2023/01/19 00:46:17;;;;;;;;;;;0.60;99.90;1.00;98745.00;;;;340132;28;90537;-85
2023/01/19 00:46:28;;;;;;;;;;;0.60;99.90;1.10;98738.00;;;;340592;28;82501;-85
2023/01/19 00:46:40;;;;;;;;;;;0.60;99.90;1.30;98738.00;;;;340104;28;89627;-85
2023/01/19 00:46:52;;;;;;;;;;;0.60;99.90;1.20;98740.00;;;;339236;28;83451;-85
2023/01/19 00:47:04;;;;;;;;;;;0.60;99.90;1.30;98734.00;;;;338577;28;90867;-85
2023/01/19 00:47:16;;;;;;;;;;;0.60;99.90;1.30;98742.00;;;;340659;28;83363;-85
2023/01/19 00:47:28;;;;;;;;;;;0.60;99.90;1.30;98744.00;;;;338681;28;91288;-85
2023/01/19 00:47:40;;;;;;;;;;;0.60;99.90;1.20;98738.00;;;;339325;28;83407;-85
2023/01/19 00:47:56;;;;;;;;;;;0.60;99.90;1.20;98729.00;;;;341535;28;89259;-85
2023/01/19 00:48:08;;;;;;;;;;;0.60;99.90;1.20;98732.00;;;;340608;28;82511;-85
2023/01/19 00:48:19;;;;;;;;;;;0.60;99.90;1.20;98742.00;;;;341508;28;90158;-85
2023/01/19 00:48:31;;;;;;;;;;;0.60;99.90;1.20;98739.00;;;;341750;28;83164;-85
2023/01/19 00:48:43;;;;;;;;;;;0.60;99.90;1.10;98734.00;;;;341377;28;90775;-85
2023/01/19 00:48:55;;;;;;;;;;;0.60;99.90;1.10;98747.00;;;;339296;28;82506;-85
2023/01/19 00:49:07;;;;;;;;;;;0.60;99.90;1.10;98746.00;;;;340153;28;89748;-85
2023/01/19 00:49:19;;;;;;;;;;;0.60;99.90;1.10;98735.00;;;;340579;28;82558;-85
2023/01/19 00:49:30;;;;;;;;;;;0.60;99.90;1.10;98733.00;;;;341454;28;89383;-85
2023/01/19 00:49:42;;;;;;;;;;;0.60;99.90;1.10;98745.00;;;;339335;28;82486;-84
2023/01/19 00:49:54;;;;;;;;;;;0.60;99.90;1.10;98733.00;;;;340121;28;89555;-85
2023/01/19 00:50:07;;;;;;;;;;;0.50;99.90;1.10;98745.00;;;;339167;28;82486;-85
2023/01/19 00:50:19;;;;;;;;;;;0.50;99.90;1.10;98744.00;;;;337509;28;88578;-85
2023/01/19 00:50:31;;;;;;;;;;;0.50;99.90;1.00;98745.00;;;;340374;28;83542;-85
2023/01/19 00:50:43;;;;;;;;;;;0.50;99.90;1.00;98743.00;;;;340112;28;89131;-85
2023/01/19 00:50:55;;;;;;;;;;;0.50;99.90;1.00;98745.00;;;;340476;28;83486;-85
2023/01/19 00:51:06;;;;;;;;;;;0.50;99.90;1.00;98737.00;;;;340192;28;89826;-85
2023/01/19 00:51:18;;;;;;;;;;;0.50;99.90;0.90;98750.00;;;;337940;28;83432;-85
2023/01/19 00:51:30;;;;;;;;;;;0.50;99.90;1.00;98743.00;;;;340222;28;87164;-85
2023/01/19 00:51:42;;;;;;;;;;;0.50;99.90;1.00;98747.00;;;;340150;28;83416;-85
2023/01/19 00:51:54;;;;;;;;;;;0.50;99.90;1.10;98745.00;;;;340171;28;89063;-85
2023/01/19 00:52:05;;;;;;;;;;;0.50;99.90;1.10;98748.00;;;;339149;28;83607;-85
2023/01/19 00:52:18;;;;;;;;;;;0.50;99.90;1.10;98744.00;;;;340037;28;92999;-85
2023/01/19 00:52:30;;;;;;;;;;;0.50;99.90;1.10;98745.00;;;;342013;28;82291;-85
2023/01/19 00:52:43;;;;;;;;;;;0.50;99.90;1.10;98746.00;;;;338776;28;88935;-85
2023/01/19 00:52:55;;;;;;;;;;;0.50;99.90;1.10;98749.00;;;;340568;28;83389;-85
2023/01/19 00:53:06;;;;;;;;;;;0.50;99.90;1.10;98750.00;;;;337277;28;89277;-85
2023/01/19 00:53:18;;;;;;;;;;;0.50;99.90;1.00;98740.00;;;;339336;28;83415;-85
2023/01/19 00:53:31;;;;;;;;;;;0.50;99.90;1.00;98745.00;;;;340157;28;91377;-85
2023/01/19 00:53:43;;;;;;;;;;;0.50;99.90;1.10;98748.00;;;;341912;28;82469;-85
2023/01/19 00:53:55;;;;;;;;;;;0.40;99.90;1.10;98750.00;;;;342652;28;90497;-85
2023/01/19 00:54:09;;;;;;;;;;;0.50;99.90;1.10;98749.00;;;;340497;28;83419;-85
2023/01/19 00:54:21;;;;;;;;;;;0.40;99.90;1.10;98755.00;;;;340195;28;88902;-85
2023/01/19 00:54:32;;;;;;;;;;;0.40;99.90;1.30;98753.00;;;;340669;28;82380;-85
2023/01/19 00:54:44;;;;;;;;;;;0.40;99.90;1.10;98740.00;;;;337474;28;88456;-85
2023/01/19 00:54:56;;;;;;;;;;;0.50;99.90;1.10;98750.00;;;;340596;28;83339;-85
2023/01/19 00:55:09;;;;;;;;;;;0.50;99.90;1.20;98749.00;;;;340008;28;89661;-85
2023/01/19 00:55:21;;;;;;;;;;;0.40;99.90;1.10;98756.00;;;;339040;28;83211;-85
2023/01/19 00:55:34;;;;;;;;;;;0.50;99.90;1.10;98758.00;;;;340093;28;91390;-85
2023/01/19 00:55:46;;;;;;;;;;;0.40;99.90;1.10;98752.00;;;;339184;28;83169;-85
2023/01/19 00:55:58;;;;;;;;;;;0.40;99.90;1.10;98752.00;;;;341532;28;88044;-85
2023/01/19 00:56:09;;;;;;;;;;;0.50;99.90;1.10;98751.00;;;;340496;28;83465;-85
2023/01/19 00:56:21;;;;;;;;;;;0.40;99.90;1.10;98747.00;;;;338622;28;92577;-85
2023/01/19 00:56:34;;;;;;;;;;;0.40;99.90;1.10;98744.00;;;;340578;28;82235;-85
2023/01/19 00:56:46;;;;;;;;;;;0.40;99.90;1.20;98752.00;;;;340152;28;88910;-85
2023/01/19 00:56:57;;;;;;;;;;;0.40;99.90;1.20;98744.00;;;;340494;28;83291;-84
2023/01/19 00:57:09;;;;;;;;;;;0.40;99.90;1.20;98749.00;;;;336176;28;89145;-85
2023/01/19 00:57:22;;;;;;;;;;;0.40;99.90;1.20;98751.00;;;;339241;28;83478;-85
2023/01/19 00:57:34;;;;;;;;;;;0.40;99.90;1.10;98749.00;;;;340173;28;88346;-85
2023/01/19 00:57:46;;;;;;;;;;;0.40;99.90;1.10;98747.00;;;;337965;28;83496;-85
2023/01/19 00:57:57;;;;;;;;;;;0.40;99.90;1.10;98742.00;;;;337499;28;91290;-85
2023/01/19 00:58:09;;;;;;;;;;;0.40;99.90;1.20;98747.00;;;;337600;28;84031;-85
2023/01/19 00:58:21;;;;;;;;;;;0.40;99.90;1.20;98749.00;;;;339973;28;92562;-85
2023/01/19 00:58:33;;;;;;;;;;;0.40;99.90;1.30;98751.00;;;;339283;28;82434;-85
2023/01/19 00:58:45;;;;;;;;;;;0.50;99.90;1.20;98737.00;;;;340288;28;88991;-85
2023/01/19 00:58:56;;;;;;;;;;;0.40;99.90;1.30;98742.00;;;;339305;28;82180;-85
2023/01/19 00:59:09;;;;;;;;;;;0.40;99.90;1.30;98744.00;;;;338886;28;87966;-85
2023/01/19 00:59:21;;;;;;;;;;;0.50;99.90;1.30;98756.00;;;;337947;28;82601;-85
2023/01/19 00:59:33;;;;;;;;;;;0.50;99.90;1.30;98746.00;;;;338867;28;87703;-85
2023/01/19 00:59:44;;;;;;;;;;;0.50;99.90;1.40;98745.00;;;;341999;28;83374;-85
2023/01/19 00:59:56;;;;;;;;;;;0.50;99.90;1.30;98753.00;;;;341479;28;89506;-85
2023/01/19 01:00:11;;;;;;;;;;;0.50;99.90;1.20;98752.00;;;;339146;28;82655;-85
2023/01/19 01:00:23;;;;;;;;;;;0.50;99.90;1.20;98742.00;;;;340136;28;89393;-85
2023/01/19 01:00:35;;;;;;;;;;;0.50;99.90;1.20;98749.00;;;;340574;28;83318;-85
2023/01/19 01:00:47;;;;;;;;;;;0.40;99.90;1.30;98752.00;;;;338649;28;89524;-85
2023/01/19 01:01:02;;;;;;;;;;;0.50;99.90;1.30;98743.00;;;;340417;28;83428;-85
2023/01/19 01:01:14;;;;;;;;;;;0.50;99.90;1.20;98741.00;;;;340144;28;86753;-85
2023/01/19 01:01:26;;;;;;;;;;;0.50;99.90;1.10;98745.00;;;;340544;28;83476;-85
2023/01/19 01:01:56;;;;;;;;;;;0.50;99.90;1.10;98743.00;;;;340192;28;88517;-85
2023/01/19 01:02:10;;;;;;;;;;;0.50;99.90;1.10;98755.00;;;;340449;28;83563;-85
2023/01/19 01:02:22;;;;;;;;;;;0.50;99.90;1.00;98751.00;;;;341338;28;92315;-85
2023/01/19 01:02:34;;;;;;;;;;;0.50;99.90;1.20;98743.00;;;;340585;28;83402;-85
2023/01/19 01:02:47;;;;;;;;;;;0.50;99.90;1.30;98745.00;;;;338700;28;92067;-85
2023/01/19 01:02:58;;;;;;;;;;;0.50;99.90;1.30;98745.00;;;;340671;28;83324;-85
2023/01/19 01:03:11;;;;;;;;;;;0.50;99.90;1.30;98740.00;;;;341413;28;90299;-85